sensor_id;sensor_type;location;lat;lon;timestamp;P1;durP1;ratioP1;P2;durP2;ratioP2
14169;SDS011;63889;50.596;8.690;2023-12-20T00:00:54;1.33;;;0.93;;
14169;SDS011;63889;50.596;8.690;2023-12-20T00:03:20;1.30;;;0.80;;
14169;SDS011;63889;50.596;8.690;2023-12-20T00:05:46;2.22;;;0.90;;
14169;SDS011;63889;50.596;8.690;2023-12-20T00:08:12;1.75;;;1.02;;
14169;SDS011;63889;50.596;8.690;2023-12-20T00:10:38;2.13;;;0.75;;
14169;SDS011;63889;50.596;8.690;2023-12-20T00:13:03;0.80;;;0.80;;
14169;SDS011;63889;50.596;8.690;2023-12-20T00:15:29;1.13;;;0.80;;
14169;SDS011;63889;50.596;8.690;2023-12-20T00:17:54;1.17;;;0.90;;
14169;SDS011;63889;50.596;8.690;2023-12-20T00:20:20;2.35;;;1.05;;
14169;SDS011;63889;50.596;8.690;2023-12-20T00:22:45;2.40;;;1.23;;
14169;SDS011;63889;50.596;8.690;2023-12-20T00:25:11;1.25;;;0.80;;
14169;SDS011;63889;50.596;8.690;2023-12-20T00:27:37;1.60;;;0.82;;
14169;SDS011;63889;50.596;8.690;2023-12-20T00:30:02;1.40;;;0.82;;
14169;SDS011;63889;50.596;8.690;2023-12-20T00:32:28;1.63;;;1.20;;
14169;SDS011;63889;50.596;8.690;2023-12-20T00:34:54;1.50;;;0.80;;
14169;SDS011;63889;50.596;8.690;2023-12-20T00:37:19;1.30;;;0.85;;
14169;SDS011;63889;50.596;8.690;2023-12-20T00:39:44;1.40;;;0.80;;
14169;SDS011;63889;50.596;8.690;2023-12-20T00:42:10;1.00;;;0.70;;
14169;SDS011;63889;50.596;8.690;2023-12-20T00:44:36;1.60;;;0.90;;
14169;SDS011;63889;50.596;8.690;2023-12-20T00:47:01;2.40;;;1.10;;
14169;SDS011;63889;50.596;8.690;2023-12-20T00:49:27;1.65;;;1.02;;
14169;SDS011;63889;50.596;8.690;2023-12-20T00:51:52;1.25;;;0.43;;
14169;SDS011;63889;50.596;8.690;2023-12-20T00:54:18;0.95;;;0.70;;
14169;SDS011;63889;50.596;8.690;2023-12-20T00:56:43;1.48;;;0.80;;
14169;SDS011;63889;50.596;8.690;2023-12-20T00:59:09;1.05;;;0.80;;
14169;SDS011;63889;50.596;8.690;2023-12-20T01:01:34;1.13;;;1.02;;
14169;SDS011;63889;50.596;8.690;2023-12-20T01:04:00;0.63;;;0.55;;
14169;SDS011;63889;50.596;8.690;2023-12-20T01:06:25;1.58;;;1.00;;
14169;SDS011;63889;50.596;8.690;2023-12-20T01:08:51;0.95;;;0.77;;
14169;SDS011;63889;50.596;8.690;2023-12-20T01:11:17;1.83;;;1.00;;
14169;SDS011;63889;50.596;8.690;2023-12-20T01:13:42;1.20;;;0.70;;
14169;SDS011;63889;50.596;8.690;2023-12-20T01:16:10;1.02;;;0.82;;
14169;SDS011;63889;50.596;8.690;2023-12-20T01:18:36;1.02;;;0.93;;
14169;SDS011;63889;50.596;8.690;2023-12-20T01:21:04;1.15;;;0.80;;
14169;SDS011;63889;50.596;8.690;2023-12-20T01:23:30;2.22;;;1.05;;
14169;SDS011;63889;50.596;8.690;2023-12-20T01:25:57;1.23;;;0.70;;
14169;SDS011;63889;50.596;8.690;2023-12-20T01:28:24;3.15;;;0.77;;
14169;SDS011;63889;50.596;8.690;2023-12-20T01:30:50;1.02;;;0.80;;
14169;SDS011;63889;50.596;8.690;2023-12-20T01:33:16;0.93;;;0.63;;
14169;SDS011;63889;50.596;8.690;2023-12-20T01:35:41;1.67;;;0.95;;
14169;SDS011;63889;50.596;8.690;2023-12-20T01:38:07;1.00;;;0.77;;
14169;SDS011;63889;50.596;8.690;2023-12-20T01:40:32;1.60;;;0.88;;
14169;SDS011;63889;50.596;8.690;2023-12-20T01:43:02;1.65;;;0.52;;
14169;SDS011;63889;50.596;8.690;2023-12-20T01:45:31;1.20;;;0.70;;
14169;SDS011;63889;50.596;8.690;2023-12-20T01:47:57;1.40;;;0.93;;
14169;SDS011;63889;50.596;8.690;2023-12-20T01:50:24;2.03;;;0.70;;
14169;SDS011;63889;50.596;8.690;2023-12-20T01:52:51;0.80;;;0.60;;
14169;SDS011;63889;50.596;8.690;2023-12-20T01:55:20;1.48;;;1.10;;
14169;SDS011;63889;50.596;8.690;2023-12-20T01:57:46;3.80;;;0.90;;
14169;SDS011;63889;50.596;8.690;2023-12-20T02:00:12;1.73;;;1.08;;
14169;SDS011;63889;50.596;8.690;2023-12-20T02:02:39;2.00;;;0.93;;
14169;SDS011;63889;50.596;8.690;2023-12-20T02:05:06;1.58;;;1.02;;
14169;SDS011;63889;50.596;8.690;2023-12-20T02:07:32;1.95;;;0.95;;
14169;SDS011;63889;50.596;8.690;2023-12-20T02:09:59;1.20;;;1.00;;
14169;SDS011;63889;50.596;8.690;2023-12-20T02:12:24;1.15;;;0.75;;
14169;SDS011;63889;50.596;8.690;2023-12-20T02:14:50;1.73;;;1.15;;
14169;SDS011;63889;50.596;8.690;2023-12-20T02:17:16;1.83;;;1.02;;
14169;SDS011;63889;50.596;8.690;2023-12-20T02:19:41;2.78;;;1.48;;
14169;SDS011;63889;50.596;8.690;2023-12-20T02:22:08;1.85;;;1.00;;
14169;SDS011;63889;50.596;8.690;2023-12-20T02:24:37;1.00;;;0.50;;
14169;SDS011;63889;50.596;8.690;2023-12-20T02:27:03;1.33;;;1.13;;
14169;SDS011;63889;50.596;8.690;2023-12-20T02:29:32;1.85;;;1.33;;
14169;SDS011;63889;50.596;8.690;2023-12-20T02:32:00;2.10;;;1.35;;
14169;SDS011;63889;50.596;8.690;2023-12-20T02:34:26;1.63;;;1.25;;
14169;SDS011;63889;50.596;8.690;2023-12-20T02:36:52;1.98;;;1.10;;
14169;SDS011;63889;50.596;8.690;2023-12-20T02:39:18;1.15;;;0.88;;
14169;SDS011;63889;50.596;8.690;2023-12-20T02:41:44;3.17;;;1.10;;
14169;SDS011;63889;50.596;8.690;2023-12-20T02:44:09;1.63;;;0.75;;
14169;SDS011;63889;50.596;8.690;2023-12-20T02:46:35;5.65;;;0.93;;
14169;SDS011;63889;50.596;8.690;2023-12-20T02:49:00;1.40;;;0.88;;
14169;SDS011;63889;50.596;8.690;2023-12-20T02:51:26;1.30;;;0.80;;
14169;SDS011;63889;50.596;8.690;2023-12-20T02:53:51;1.40;;;1.02;;
14169;SDS011;63889;50.596;8.690;2023-12-20T02:56:17;1.85;;;1.38;;
14169;SDS011;63889;50.596;8.690;2023-12-20T02:58:42;1.20;;;1.10;;
14169;SDS011;63889;50.596;8.690;2023-12-20T03:03:33;1.77;;;1.02;;
14169;SDS011;63889;50.596;8.690;2023-12-20T03:05:59;2.63;;;1.27;;
14169;SDS011;63889;50.596;8.690;2023-12-20T03:08:25;1.83;;;1.25;;
14169;SDS011;63889;50.596;8.690;2023-12-20T03:10:50;2.13;;;1.10;;
14169;SDS011;63889;50.596;8.690;2023-12-20T03:13:16;2.20;;;1.40;;
14169;SDS011;63889;50.596;8.690;2023-12-20T03:15:41;2.83;;;1.20;;
14169;SDS011;63889;50.596;8.690;2023-12-20T03:18:07;1.77;;;1.33;;
14169;SDS011;63889;50.596;8.690;2023-12-20T03:20:32;2.00;;;1.10;;
14169;SDS011;63889;50.596;8.690;2023-12-20T03:22:59;2.17;;;1.25;;
14169;SDS011;63889;50.596;8.690;2023-12-20T03:25:25;1.52;;;1.05;;
14169;SDS011;63889;50.596;8.690;2023-12-20T03:27:51;1.58;;;1.13;;
14169;SDS011;63889;50.596;8.690;2023-12-20T03:30:17;1.98;;;1.77;;
14169;SDS011;63889;50.596;8.690;2023-12-20T03:32:43;1.55;;;1.10;;
14169;SDS011;63889;50.596;8.690;2023-12-20T03:35:08;1.45;;;0.90;;
14169;SDS011;63889;50.596;8.690;2023-12-20T03:37:34;2.42;;;1.00;;
14169;SDS011;63889;50.596;8.690;2023-12-20T03:40:00;1.80;;;1.20;;
14169;SDS011;63889;50.596;8.690;2023-12-20T03:42:25;2.33;;;1.70;;
14169;SDS011;63889;50.596;8.690;2023-12-20T03:44:51;1.52;;;1.23;;
14169;SDS011;63889;50.596;8.690;2023-12-20T03:47:16;1.55;;;1.20;;
14169;SDS011;63889;50.596;8.690;2023-12-20T03:49:42;2.63;;;1.60;;
14169;SDS011;63889;50.596;8.690;2023-12-20T03:52:08;5.20;;;1.80;;
14169;SDS011;63889;50.596;8.690;2023-12-20T03:54:34;2.53;;;1.55;;
14169;SDS011;63889;50.596;8.690;2023-12-20T03:57:00;3.53;;;1.50;;
14169;SDS011;63889;50.596;8.690;2023-12-20T03:59:26;3.33;;;1.75;;
14169;SDS011;63889;50.596;8.690;2023-12-20T04:01:51;1.75;;;1.40;;
14169;SDS011;63889;50.596;8.690;2023-12-20T04:04:17;2.70;;;1.95;;
14169;SDS011;63889;50.596;8.690;2023-12-20T04:06:43;2.15;;;1.45;;
14169;SDS011;63889;50.596;8.690;2023-12-20T04:09:09;2.38;;;1.50;;
14169;SDS011;63889;50.596;8.690;2023-12-20T04:11:34;4.85;;;1.25;;
14169;SDS011;63889;50.596;8.690;2023-12-20T04:14:01;2.03;;;1.48;;
14169;SDS011;63889;50.596;8.690;2023-12-20T04:16:26;4.78;;;1.65;;
14169;SDS011;63889;50.596;8.690;2023-12-20T04:18:52;2.60;;;1.20;;
14169;SDS011;63889;50.596;8.690;2023-12-20T04:21:18;2.15;;;1.38;;
14169;SDS011;63889;50.596;8.690;2023-12-20T04:23:43;2.53;;;1.58;;
14169;SDS011;63889;50.596;8.690;2023-12-20T04:26:09;2.83;;;1.63;;
14169;SDS011;63889;50.596;8.690;2023-12-20T04:28:35;2.22;;;1.60;;
14169;SDS011;63889;50.596;8.690;2023-12-20T04:31:00;2.40;;;1.52;;
14169;SDS011;63889;50.596;8.690;2023-12-20T04:33:26;4.38;;;1.65;;
14169;SDS011;63889;50.596;8.690;2023-12-20T04:35:51;2.65;;;1.77;;
14169;SDS011;63889;50.596;8.690;2023-12-20T04:38:17;6.22;;;1.92;;
14169;SDS011;63889;50.596;8.690;2023-12-20T04:40:42;2.75;;;1.30;;
14169;SDS011;63889;50.596;8.690;2023-12-20T04:43:08;1.27;;;1.17;;
14169;SDS011;63889;50.596;8.690;2023-12-20T04:45:34;2.35;;;1.48;;
14169;SDS011;63889;50.596;8.690;2023-12-20T04:47:59;4.65;;;1.85;;
14169;SDS011;63889;50.596;8.690;2023-12-20T04:50:25;5.00;;;1.88;;
14169;SDS011;63889;50.596;8.690;2023-12-20T04:52:51;5.72;;;1.92;;
14169;SDS011;63889;50.596;8.690;2023-12-20T04:55:17;6.50;;;2.17;;
14169;SDS011;63889;50.596;8.690;2023-12-20T04:57:42;7.55;;;2.28;;
14169;SDS011;63889;50.596;8.690;2023-12-20T05:00:08;7.85;;;2.22;;
14169;SDS011;63889;50.596;8.690;2023-12-20T05:02:34;5.68;;;2.75;;
14169;SDS011;63889;50.596;8.690;2023-12-20T05:05:01;6.10;;;3.00;;
14169;SDS011;63889;50.596;8.690;2023-12-20T05:07:26;11.65;;;3.88;;
14169;SDS011;63889;50.596;8.690;2023-12-20T05:09:52;8.45;;;3.47;;
14169;SDS011;63889;50.596;8.690;2023-12-20T05:12:18;6.25;;;2.90;;
14169;SDS011;63889;50.596;8.690;2023-12-20T05:14:44;4.18;;;2.78;;
14169;SDS011;63889;50.596;8.690;2023-12-20T05:17:09;7.45;;;3.67;;
14169;SDS011;63889;50.596;8.690;2023-12-20T05:19:35;8.13;;;3.28;;
14169;SDS011;63889;50.596;8.690;2023-12-20T05:22:01;10.95;;;3.63;;
14169;SDS011;63889;50.596;8.690;2023-12-20T05:24:27;8.32;;;3.75;;
14169;SDS011;63889;50.596;8.690;2023-12-20T05:26:52;8.93;;;3.22;;
14169;SDS011;63889;50.596;8.690;2023-12-20T05:29:18;8.80;;;4.28;;
14169;SDS011;63889;50.596;8.690;2023-12-20T05:31:44;10.25;;;3.88;;
14169;SDS011;63889;50.596;8.690;2023-12-20T05:34:09;7.97;;;4.38;;
14169;SDS011;63889;50.596;8.690;2023-12-20T05:36:35;7.45;;;3.53;;
14169;SDS011;63889;50.596;8.690;2023-12-20T05:39:01;17.52;;;3.78;;
14169;SDS011;63889;50.596;8.690;2023-12-20T05:41:28;7.25;;;3.53;;
14169;SDS011;63889;50.596;8.690;2023-12-20T05:43:54;7.00;;;3.25;;
14169;SDS011;63889;50.596;8.690;2023-12-20T05:46:19;8.98;;;3.65;;
14169;SDS011;63889;50.596;8.690;2023-12-20T05:48:46;7.35;;;2.97;;
14169;SDS011;63889;50.596;8.690;2023-12-20T05:51:11;9.18;;;2.80;;
14169;SDS011;63889;50.596;8.690;2023-12-20T05:53:38;13.30;;;3.60;;
14169;SDS011;63889;50.596;8.690;2023-12-20T05:56:03;6.47;;;2.63;;
14169;SDS011;63889;50.596;8.690;2023-12-20T05:58:29;9.13;;;2.55;;
14169;SDS011;63889;50.596;8.690;2023-12-20T06:00:55;5.07;;;2.50;;
14169;SDS011;63889;50.596;8.690;2023-12-20T06:03:20;7.22;;;2.65;;
14169;SDS011;63889;50.596;8.690;2023-12-20T06:05:46;8.68;;;2.67;;
14169;SDS011;63889;50.596;8.690;2023-12-20T06:08:11;6.68;;;1.95;;
14169;SDS011;63889;50.596;8.690;2023-12-20T06:10:37;4.90;;;1.83;;
14169;SDS011;63889;50.596;8.690;2023-12-20T06:13:03;7.65;;;1.77;;
14169;SDS011;63889;50.596;8.690;2023-12-20T06:15:29;4.75;;;1.73;;
14169;SDS011;63889;50.596;8.690;2023-12-20T06:17:55;4.03;;;2.30;;
14169;SDS011;63889;50.596;8.690;2023-12-20T06:20:20;6.15;;;2.47;;
14169;SDS011;63889;50.596;8.690;2023-12-20T06:22:46;7.15;;;3.28;;
14169;SDS011;63889;50.596;8.690;2023-12-20T06:25:11;6.18;;;3.28;;
14169;SDS011;63889;50.596;8.690;2023-12-20T06:27:37;16.73;;;5.68;;
14169;SDS011;63889;50.596;8.690;2023-12-20T06:30:03;11.88;;;4.78;;
14169;SDS011;63889;50.596;8.690;2023-12-20T06:32:29;8.45;;;3.13;;
14169;SDS011;63889;50.596;8.690;2023-12-20T06:34:55;7.32;;;3.28;;
14169;SDS011;63889;50.596;8.690;2023-12-20T06:37:20;7.65;;;2.78;;
14169;SDS011;63889;50.596;8.690;2023-12-20T06:39:46;12.30;;;2.90;;
14169;SDS011;63889;50.596;8.690;2023-12-20T06:42:12;10.73;;;2.53;;
14169;SDS011;63889;50.596;8.690;2023-12-20T06:44:38;5.60;;;2.35;;
14169;SDS011;63889;50.596;8.690;2023-12-20T06:47:04;6.55;;;2.53;;
14169;SDS011;63889;50.596;8.690;2023-12-20T06:49:29;7.32;;;3.20;;
14169;SDS011;63889;50.596;8.690;2023-12-20T06:51:55;13.32;;;3.00;;
14169;SDS011;63889;50.596;8.690;2023-12-20T06:54:20;8.10;;;3.00;;
14169;SDS011;63889;50.596;8.690;2023-12-20T06:56:46;8.38;;;3.15;;
14169;SDS011;63889;50.596;8.690;2023-12-20T06:59:12;12.75;;;3.90;;
14169;SDS011;63889;50.596;8.690;2023-12-20T07:01:37;13.77;;;4.03;;
14169;SDS011;63889;50.596;8.690;2023-12-20T07:04:03;19.38;;;3.88;;
14169;SDS011;63889;50.596;8.690;2023-12-20T07:06:28;10.48;;;3.70;;
14169;SDS011;63889;50.596;8.690;2023-12-20T07:08:54;7.82;;;2.78;;
14169;SDS011;63889;50.596;8.690;2023-12-20T07:11:19;9.25;;;3.45;;
14169;SDS011;63889;50.596;8.690;2023-12-20T07:13:45;12.35;;;2.65;;
14169;SDS011;63889;50.596;8.690;2023-12-20T07:16:10;6.47;;;2.55;;
14169;SDS011;63889;50.596;8.690;2023-12-20T07:18:36;6.55;;;2.95;;
14169;SDS011;63889;50.596;8.690;2023-12-20T07:21:02;7.07;;;2.58;;
14169;SDS011;63889;50.596;8.690;2023-12-20T07:23:28;8.43;;;2.25;;
14169;SDS011;63889;50.596;8.690;2023-12-20T07:25:54;10.70;;;3.70;;
14169;SDS011;63889;50.596;8.690;2023-12-20T07:28:20;5.00;;;2.95;;
14169;SDS011;63889;50.596;8.690;2023-12-20T07:30:45;7.38;;;2.88;;
14169;SDS011;63889;50.596;8.690;2023-12-20T07:33:11;7.35;;;2.50;;
14169;SDS011;63889;50.596;8.690;2023-12-20T07:35:37;10.38;;;3.58;;
14169;SDS011;63889;50.596;8.690;2023-12-20T07:38:03;11.40;;;2.88;;
14169;SDS011;63889;50.596;8.690;2023-12-20T07:40:28;11.80;;;2.90;;
14169;SDS011;63889;50.596;8.690;2023-12-20T07:42:54;9.80;;;2.90;;
14169;SDS011;63889;50.596;8.690;2023-12-20T07:45:20;5.53;;;2.40;;
14169;SDS011;63889;50.596;8.690;2023-12-20T07:47:45;7.30;;;2.58;;
14169;SDS011;63889;50.596;8.690;2023-12-20T07:50:11;11.90;;;2.20;;
14169;SDS011;63889;50.596;8.690;2023-12-20T07:52:36;13.68;;;2.75;;
14169;SDS011;63889;50.596;8.690;2023-12-20T07:55:02;11.05;;;2.17;;
14169;SDS011;63889;50.596;8.690;2023-12-20T07:57:29;8.20;;;1.80;;
14169;SDS011;63889;50.596;8.690;2023-12-20T07:59:55;13.20;;;2.20;;
14169;SDS011;63889;50.596;8.690;2023-12-20T08:02:21;17.38;;;2.80;;
14169;SDS011;63889;50.596;8.690;2023-12-20T08:04:46;11.18;;;2.10;;
14169;SDS011;63889;50.596;8.690;2023-12-20T08:07:12;5.82;;;1.77;;
14169;SDS011;63889;50.596;8.690;2023-12-20T08:09:37;5.45;;;1.88;;
14169;SDS011;63889;50.596;8.690;2023-12-20T08:12:03;6.55;;;2.45;;
14169;SDS011;63889;50.596;8.690;2023-12-20T08:14:29;5.00;;;2.33;;
14169;SDS011;63889;50.596;8.690;2023-12-20T08:16:54;13.20;;;2.95;;
14169;SDS011;63889;50.596;8.690;2023-12-20T08:19:20;8.85;;;1.90;;
14169;SDS011;63889;50.596;8.690;2023-12-20T08:21:45;8.63;;;1.80;;
14169;SDS011;63889;50.596;8.690;2023-12-20T08:24:11;8.90;;;2.42;;
14169;SDS011;63889;50.596;8.690;2023-12-20T08:26:36;10.57;;;3.03;;
14169;SDS011;63889;50.596;8.690;2023-12-20T08:29:02;6.78;;;2.28;;
14169;SDS011;63889;50.596;8.690;2023-12-20T08:31:28;13.40;;;2.28;;
14169;SDS011;63889;50.596;8.690;2023-12-20T08:33:54;15.27;;;2.42;;
14169;SDS011;63889;50.596;8.690;2023-12-20T08:36:19;13.75;;;2.75;;
14169;SDS011;63889;50.596;8.690;2023-12-20T08:38:47;6.53;;;1.95;;
14169;SDS011;63889;50.596;8.690;2023-12-20T08:41:13;13.25;;;2.67;;
14169;SDS011;63889;50.596;8.690;2023-12-20T08:43:38;5.97;;;2.03;;
14169;SDS011;63889;50.596;8.690;2023-12-20T08:46:07;8.63;;;1.70;;
14169;SDS011;63889;50.596;8.690;2023-12-20T08:48:34;9.07;;;2.42;;
14169;SDS011;63889;50.596;8.690;2023-12-20T08:51:00;4.97;;;1.90;;
14169;SDS011;63889;50.596;8.690;2023-12-20T08:53:25;10.10;;;2.30;;
14169;SDS011;63889;50.596;8.690;2023-12-20T08:55:51;14.55;;;2.08;;
14169;SDS011;63889;50.596;8.690;2023-12-20T08:58:17;10.80;;;1.65;;
14169;SDS011;63889;50.596;8.690;2023-12-20T09:00:42;11.15;;;2.80;;
14169;SDS011;63889;50.596;8.690;2023-12-20T09:03:08;4.80;;;1.75;;
14169;SDS011;63889;50.596;8.690;2023-12-20T09:05:34;9.75;;;2.88;;
14169;SDS011;63889;50.596;8.690;2023-12-20T09:08:00;6.25;;;1.90;;
14169;SDS011;63889;50.596;8.690;2023-12-20T09:10:25;6.13;;;2.45;;
14169;SDS011;63889;50.596;8.690;2023-12-20T09:12:51;11.48;;;1.90;;
14169;SDS011;63889;50.596;8.690;2023-12-20T09:15:21;14.60;;;2.60;;
14169;SDS011;63889;50.596;8.690;2023-12-20T09:17:48;12.00;;;2.20;;
14169;SDS011;63889;50.596;8.690;2023-12-20T09:20:13;8.88;;;2.20;;
14169;SDS011;63889;50.596;8.690;2023-12-20T09:22:39;3.63;;;1.52;;
14169;SDS011;63889;50.596;8.690;2023-12-20T09:25:06;7.03;;;2.03;;
14169;SDS011;63889;50.596;8.690;2023-12-20T09:27:33;8.77;;;2.10;;
14169;SDS011;63889;50.596;8.690;2023-12-20T09:29:58;7.90;;;2.38;;
14169;SDS011;63889;50.596;8.690;2023-12-20T09:32:24;8.05;;;1.92;;
14169;SDS011;63889;50.596;8.690;2023-12-20T09:34:49;12.93;;;1.88;;
14169;SDS011;63889;50.596;8.690;2023-12-20T09:37:15;18.20;;;2.35;;
14169;SDS011;63889;50.596;8.690;2023-12-20T09:39:40;8.10;;;1.80;;
14169;SDS011;63889;50.596;8.690;2023-12-20T09:42:06;5.55;;;1.58;;
14169;SDS011;63889;50.596;8.690;2023-12-20T09:44:33;7.90;;;2.13;;
14169;SDS011;63889;50.596;8.690;2023-12-20T09:47:02;15.38;;;2.28;;
14169;SDS011;63889;50.596;8.690;2023-12-20T09:49:30;7.70;;;1.95;;
14169;SDS011;63889;50.596;8.690;2023-12-20T09:51:55;7.38;;;2.00;;
14169;SDS011;63889;50.596;8.690;2023-12-20T09:54:22;6.18;;;1.80;;
14169;SDS011;63889;50.596;8.690;2023-12-20T09:56:49;13.38;;;2.72;;
14169;SDS011;63889;50.596;8.690;2023-12-20T09:59:15;10.98;;;1.83;;
14169;SDS011;63889;50.596;8.690;2023-12-20T10:01:41;3.50;;;1.67;;
14169;SDS011;63889;50.596;8.690;2023-12-20T10:04:08;9.90;;;2.13;;
14169;SDS011;63889;50.596;8.690;2023-12-20T10:06:37;7.95;;;1.60;;
14169;SDS011;63889;50.596;8.690;2023-12-20T10:09:06;8.30;;;1.77;;
14169;SDS011;63889;50.596;8.690;2023-12-20T10:11:32;8.63;;;1.85;;
14169;SDS011;63889;50.596;8.690;2023-12-20T10:14:00;13.73;;;1.83;;
14169;SDS011;63889;50.596;8.690;2023-12-20T10:16:26;7.43;;;2.13;;
14169;SDS011;63889;50.596;8.690;2023-12-20T10:18:53;17.90;;;2.78;;
14169;SDS011;63889;50.596;8.690;2023-12-20T10:21:19;9.50;;;2.80;;
14169;SDS011;63889;50.596;8.690;2023-12-20T10:23:45;9.55;;;2.80;;
14169;SDS011;63889;50.596;8.690;2023-12-20T10:26:16;4.55;;;1.88;;
14169;SDS011;63889;50.596;8.690;2023-12-20T10:28:51;9.70;;;1.48;;
14169;SDS011;63889;50.596;8.690;2023-12-20T10:33:58;3.45;;;1.70;;
14169;SDS011;63889;50.596;8.690;2023-12-20T10:36:29;6.80;;;1.77;;
14169;SDS011;63889;50.596;8.690;2023-12-20T10:41:25;6.28;;;1.55;;
14169;SDS011;63889;50.596;8.690;2023-12-20T10:43:59;16.50;;;2.08;;
14169;SDS011;63889;50.596;8.690;2023-12-20T10:46:26;7.68;;;2.08;;
14169;SDS011;63889;50.596;8.690;2023-12-20T10:48:53;13.30;;;1.92;;
14169;SDS011;63889;50.596;8.690;2023-12-20T10:51:20;7.82;;;1.88;;
14169;SDS011;63889;50.596;8.690;2023-12-20T10:53:49;11.00;;;2.10;;
14169;SDS011;63889;50.596;8.690;2023-12-20T10:56:16;7.65;;;2.15;;
14169;SDS011;63889;50.596;8.690;2023-12-20T10:58:43;4.95;;;1.70;;
14169;SDS011;63889;50.596;8.690;2023-12-20T11:01:09;13.52;;;2.00;;
14169;SDS011;63889;50.596;8.690;2023-12-20T11:03:39;13.38;;;2.88;;
14169;SDS011;63889;50.596;8.690;2023-12-20T11:14:17;9.77;;;3.30;;
14169;SDS011;63889;50.596;8.690;2023-12-20T11:16:47;8.48;;;2.50;;
14169;SDS011;63889;50.596;8.690;2023-12-20T11:19:13;12.75;;;2.50;;
14169;SDS011;63889;50.596;8.690;2023-12-20T11:21:39;7.28;;;2.90;;
14169;SDS011;63889;50.596;8.690;2023-12-20T11:24:05;7.75;;;1.77;;
14169;SDS011;63889;50.596;8.690;2023-12-20T11:26:31;4.43;;;1.33;;
14169;SDS011;63889;50.596;8.690;2023-12-20T11:32:03;6.65;;;1.55;;
14169;SDS011;63889;50.596;8.690;2023-12-20T11:34:50;8.68;;;2.50;;
14169;SDS011;63889;50.596;8.690;2023-12-20T11:37:16;5.82;;;2.40;;
14169;SDS011;63889;50.596;8.690;2023-12-20T11:39:45;6.03;;;2.40;;
14169;SDS011;63889;50.596;8.690;2023-12-20T11:42:10;9.52;;;2.60;;
14169;SDS011;63889;50.596;8.690;2023-12-20T11:44:36;11.77;;;2.47;;
14169;SDS011;63889;50.596;8.690;2023-12-20T11:47:02;11.23;;;2.17;;
14169;SDS011;63889;50.596;8.690;2023-12-20T11:49:28;6.75;;;3.05;;
14169;SDS011;63889;50.596;8.690;2023-12-20T11:51:55;7.78;;;1.92;;
14169;SDS011;63889;50.596;8.690;2023-12-20T11:54:21;10.98;;;2.95;;
14169;SDS011;63889;50.596;8.690;2023-12-20T11:56:47;9.68;;;2.53;;
14169;SDS011;63889;50.596;8.690;2023-12-20T11:59:13;11.18;;;2.75;;
14169;SDS011;63889;50.596;8.690;2023-12-20T12:01:39;16.73;;;3.47;;
14169;SDS011;63889;50.596;8.690;2023-12-20T12:04:06;7.65;;;1.67;;
14169;SDS011;63889;50.596;8.690;2023-12-20T12:06:32;9.95;;;2.90;;
14169;SDS011;63889;50.596;8.690;2023-12-20T12:08:58;11.48;;;2.63;;
14169;SDS011;63889;50.596;8.690;2023-12-20T12:11:24;10.77;;;3.03;;
14169;SDS011;63889;50.596;8.690;2023-12-20T12:13:50;5.22;;;2.33;;
14169;SDS011;63889;50.596;8.690;2023-12-20T12:16:22;12.65;;;2.33;;
14169;SDS011;63889;50.596;8.690;2023-12-20T12:21:22;6.55;;;2.50;;
14169;SDS011;63889;50.596;8.690;2023-12-20T12:23:48;12.55;;;3.53;;
14169;SDS011;63889;50.596;8.690;2023-12-20T12:26:14;14.70;;;2.22;;
14169;SDS011;63889;50.596;8.690;2023-12-20T12:28:40;15.20;;;3.38;;
14169;SDS011;63889;50.596;8.690;2023-12-20T12:31:06;12.02;;;3.17;;
14169;SDS011;63889;50.596;8.690;2023-12-20T12:33:32;8.38;;;2.40;;
14169;SDS011;63889;50.596;8.690;2023-12-20T12:35:58;11.15;;;2.85;;
14169;SDS011;63889;50.596;8.690;2023-12-20T12:38:24;5.25;;;2.05;;
14169;SDS011;63889;50.596;8.690;2023-12-20T12:40:50;8.73;;;2.00;;
14169;SDS011;63889;50.596;8.690;2023-12-20T12:43:18;4.13;;;1.88;;
14169;SDS011;63889;50.596;8.690;2023-12-20T12:48:34;6.05;;;1.98;;
14169;SDS011;63889;50.596;8.690;2023-12-20T12:51:00;6.53;;;1.92;;
14169;SDS011;63889;50.596;8.690;2023-12-20T12:53:25;8.55;;;1.67;;
14169;SDS011;63889;50.596;8.690;2023-12-20T12:55:52;8.35;;;1.77;;
14169;SDS011;63889;50.596;8.690;2023-12-20T12:58:19;15.52;;;2.30;;
14169;SDS011;63889;50.596;8.690;2023-12-20T13:00:44;7.35;;;2.20;;
14169;SDS011;63889;50.596;8.690;2023-12-20T13:03:10;8.25;;;1.90;;
14169;SDS011;63889;50.596;8.690;2023-12-20T13:05:35;5.63;;;2.83;;
14169;SDS011;63889;50.596;8.690;2023-12-20T13:08:01;12.32;;;2.03;;
14169;SDS011;63889;50.596;8.690;2023-12-20T13:10:26;4.97;;;1.73;;
14169;SDS011;63889;50.596;8.690;2023-12-20T13:12:52;10.80;;;2.03;;
14169;SDS011;63889;50.596;8.690;2023-12-20T13:15:17;10.35;;;2.70;;
14169;SDS011;63889;50.596;8.690;2023-12-20T13:17:43;11.40;;;2.17;;
14169;SDS011;63889;50.596;8.690;2023-12-20T13:20:11;15.65;;;2.10;;
14169;SDS011;63889;50.596;8.690;2023-12-20T13:22:36;6.50;;;1.98;;
14169;SDS011;63889;50.596;8.690;2023-12-20T13:25:02;9.10;;;2.50;;
14169;SDS011;63889;50.596;8.690;2023-12-20T13:27:28;10.52;;;2.63;;
14169;SDS011;63889;50.596;8.690;2023-12-20T13:29:53;6.10;;;2.08;;
14169;SDS011;63889;50.596;8.690;2023-12-20T13:32:19;11.13;;;2.05;;
14169;SDS011;63889;50.596;8.690;2023-12-20T13:34:45;8.63;;;2.58;;
14169;SDS011;63889;50.596;8.690;2023-12-20T13:37:10;5.65;;;2.03;;
14169;SDS011;63889;50.596;8.690;2023-12-20T13:39:36;7.25;;;2.10;;
14169;SDS011;63889;50.596;8.690;2023-12-20T13:42:01;5.53;;;1.90;;
14169;SDS011;63889;50.596;8.690;2023-12-20T13:44:27;10.05;;;2.20;;
14169;SDS011;63889;50.596;8.690;2023-12-20T13:46:53;4.40;;;1.58;;
14169;SDS011;63889;50.596;8.690;2023-12-20T13:49:18;11.70;;;2.28;;
14169;SDS011;63889;50.596;8.690;2023-12-20T13:51:44;5.68;;;2.47;;
14169;SDS011;63889;50.596;8.690;2023-12-20T13:54:09;9.45;;;2.33;;
14169;SDS011;63889;50.596;8.690;2023-12-20T13:56:36;11.15;;;2.03;;
14169;SDS011;63889;50.596;8.690;2023-12-20T13:59:01;4.05;;;1.58;;
14169;SDS011;63889;50.596;8.690;2023-12-20T14:01:27;10.35;;;2.30;;
14169;SDS011;63889;50.596;8.690;2023-12-20T14:03:52;9.68;;;2.20;;
14169;SDS011;63889;50.596;8.690;2023-12-20T14:06:18;11.65;;;1.95;;
14169;SDS011;63889;50.596;8.690;2023-12-20T14:08:43;5.13;;;2.13;;
14169;SDS011;63889;50.596;8.690;2023-12-20T14:11:09;8.85;;;2.20;;
14169;SDS011;63889;50.596;8.690;2023-12-20T14:13:35;11.15;;;2.58;;
14169;SDS011;63889;50.596;8.690;2023-12-20T14:16:01;12.80;;;2.08;;
14169;SDS011;63889;50.596;8.690;2023-12-20T14:18:28;5.57;;;2.45;;
14169;SDS011;63889;50.596;8.690;2023-12-20T14:20:55;5.97;;;2.03;;
14169;SDS011;63889;50.596;8.690;2023-12-20T14:23:21;14.38;;;2.30;;
14169;SDS011;63889;50.596;8.690;2023-12-20T14:25:47;15.07;;;3.67;;
14169;SDS011;63889;50.596;8.690;2023-12-20T14:28:14;8.77;;;1.83;;
14169;SDS011;63889;50.596;8.690;2023-12-20T14:30:39;4.57;;;2.03;;
14169;SDS011;63889;50.596;8.690;2023-12-20T14:33:05;5.78;;;2.10;;
14169;SDS011;63889;50.596;8.690;2023-12-20T14:35:31;9.95;;;2.30;;
14169;SDS011;63889;50.596;8.690;2023-12-20T14:37:57;10.73;;;3.40;;
14169;SDS011;63889;50.596;8.690;2023-12-20T14:40:22;6.25;;;2.40;;
14169;SDS011;63889;50.596;8.690;2023-12-20T14:42:48;5.75;;;1.60;;
14169;SDS011;63889;50.596;8.690;2023-12-20T14:45:14;5.60;;;2.00;;
14169;SDS011;63889;50.596;8.690;2023-12-20T14:47:41;3.50;;;1.73;;
14169;SDS011;63889;50.596;8.690;2023-12-20T14:50:06;3.70;;;1.40;;
14169;SDS011;63889;50.596;8.690;2023-12-20T14:52:32;9.55;;;2.10;;
14169;SDS011;63889;50.596;8.690;2023-12-20T14:55:02;9.52;;;2.05;;
14169;SDS011;63889;50.596;8.690;2023-12-20T14:57:28;7.95;;;2.10;;
14169;SDS011;63889;50.596;8.690;2023-12-20T14:59:55;9.38;;;2.00;;
14169;SDS011;63889;50.596;8.690;2023-12-20T15:02:21;5.22;;;2.08;;